createdAt,value
2022-10-05T00:00:59.545Z,15.05
2022-10-05T00:03:33.552Z,14.91
2022-10-05T00:06:02.294Z,14.79
2022-10-05T00:08:34.048Z,14.89
2022-10-05T00:11:02.121Z,14.93
2022-10-05T00:13:32.240Z,14.76
2022-10-05T00:16:10.365Z,14.73
2022-10-05T00:18:39.522Z,14.69
2022-10-05T00:21:19.472Z,14.75
2022-10-05T00:23:47.646Z,14.85
2022-10-05T00:26:19.745Z,14.85
2022-10-05T00:28:47.611Z,14.70
2022-10-05T00:31:19.997Z,14.79
2022-10-05T00:33:48.884Z,14.77
2022-10-05T00:36:16.985Z,14.76
2022-10-05T00:38:46.466Z,14.72
2022-10-05T00:41:21.797Z,14.66
2022-10-05T00:44:09.443Z,14.63
2022-10-05T00:46:51.884Z,14.65
2022-10-05T00:49:35.252Z,14.58
2022-10-05T00:52:20.138Z,14.58
2022-10-05T00:54:58.104Z,14.50
2022-10-05T00:57:41.508Z,14.56
2022-10-05T01:00:13.505Z,14.43
2022-10-05T01:02:53.081Z,14.43
2022-10-05T01:05:34.597Z,14.52
2022-10-05T01:08:13.760Z,14.56
2022-10-05T01:10:49.805Z,14.43
2022-10-05T01:13:28.721Z,14.43
2022-10-05T01:16:08.310Z,14.54
2022-10-05T01:18:43.645Z,14.44
2022-10-05T01:21:18.618Z,14.51
2022-10-05T01:24:22.636Z,14.34
2022-10-05T01:27:17.017Z,14.22
2022-10-05T01:29:50.740Z,14.27
2022-10-05T01:32:25.921Z,14.28
2022-10-05T01:35:02.205Z,14.45
2022-10-05T01:37:40.332Z,14.21
2022-10-05T01:40:13.042Z,14.16
2022-10-05T01:42:57.256Z,14.48
2022-10-05T01:45:36.442Z,14.39
2022-10-05T01:48:10.269Z,14.37
2022-10-05T01:50:48.608Z,14.45
2022-10-05T01:53:26.960Z,14.41
2022-10-05T01:56:03.512Z,14.39
2022-10-05T01:58:42.765Z,14.41
2022-10-05T02:01:21.984Z,14.36
2022-10-05T02:03:54.203Z,14.21
2022-10-05T02:06:26.041Z,14.18
2022-10-05T02:08:59.669Z,14.15
2022-10-05T02:11:27.599Z,14.29
2022-10-05T02:14:00.762Z,14.37
2022-10-05T02:16:36.027Z,14.15
2022-10-05T02:19:14.528Z,14.03
2022-10-05T02:21:47.564Z,14.07
2022-10-05T02:24:22.877Z,14.09
2022-10-05T02:26:53.432Z,13.93
2022-10-05T02:29:24.762Z,13.98
2022-10-05T02:31:59.215Z,13.99
2022-10-05T02:34:28.160Z,14.01
2022-10-05T02:37:18.008Z,13.88
2022-10-05T02:40:01.886Z,13.85
2022-10-05T02:42:38.042Z,13.98
2022-10-05T02:45:17.114Z,13.92
2022-10-05T02:47:54.597Z,13.96
2022-10-05T02:50:30.357Z,14.00
2022-10-05T02:53:11.277Z,13.93
2022-10-05T02:55:48.107Z,13.98
2022-10-05T02:58:21.316Z,13.93
2022-10-05T03:00:56.509Z,13.95
2022-10-05T03:03:33.491Z,13.81
2022-10-05T03:06:03.523Z,13.81
2022-10-05T03:08:36.947Z,13.85
2022-10-05T03:11:13.347Z,13.89
2022-10-05T03:13:49.491Z,13.80
2022-10-05T03:16:44.533Z,13.85
2022-10-05T03:19:28.706Z,13.87
2022-10-05T03:22:02.931Z,13.94
2022-10-05T03:24:45.949Z,13.95
2022-10-05T03:27:26.756Z,13.82
2022-10-05T03:30:03.458Z,14.07
2022-10-05T03:32:44.642Z,13.92
2022-10-05T03:35:24.175Z,13.98
2022-10-05T03:38:00.186Z,13.97
2022-10-05T03:40:35.815Z,14.10
2022-10-05T03:43:19.221Z,14.00
2022-10-05T03:45:55.362Z,14.10
2022-10-05T03:48:30.124Z,14.15
2022-10-05T03:51:05.935Z,14.20
2022-10-05T03:53:42.049Z,14.30
2022-10-05T03:56:15.373Z,14.30
2022-10-05T03:58:51.278Z,14.09
2022-10-05T04:01:24.166Z,14.22
2022-10-05T04:03:58.220Z,14.07
2022-10-05T04:06:30.494Z,14.14
2022-10-05T04:09:04.203Z,13.96
2022-10-05T04:11:37.945Z,14.03
2022-10-05T04:14:11.313Z,14.07
2022-10-05T04:16:45.350Z,14.07
2022-10-05T04:19:20.629Z,14.04
2022-10-05T04:21:53.224Z,13.88
2022-10-05T04:24:28.216Z,14.15
2022-10-05T04:26:59.782Z,14.00
2022-10-05T04:29:35.657Z,14.12
2022-10-05T04:32:17.588Z,14.17
2022-10-05T04:34:59.122Z,14.23
2022-10-05T04:37:43.229Z,14.18
2022-10-05T04:40:28.076Z,13.97
2022-10-05T04:43:08.153Z,14.03
2022-10-05T04:45:50.511Z,14.07
2022-10-05T04:48:35.606Z,14.03
2022-10-05T04:51:18.170Z,14.08
2022-10-05T04:53:55.346Z,13.95
2022-10-05T04:56:35.155Z,13.94
2022-10-05T04:59:24.836Z,13.89
2022-10-05T05:02:06.739Z,13.90
2022-10-05T05:04:55.092Z,13.94
2022-10-05T05:07:41.070Z,14.05
2022-10-05T05:10:39.535Z,13.92
2022-10-05T05:13:28.952Z,14.06
2022-10-05T05:16:04.633Z,13.98
2022-10-05T05:18:59.078Z,14.02
2022-10-05T05:21:38.732Z,13.87
2022-10-05T05:24:12.523Z,13.88
2022-10-05T05:26:50.739Z,14.07
2022-10-05T05:29:24.502Z,14.01
2022-10-05T05:31:57.792Z,14.04
2022-10-05T05:34:45.338Z,13.91
2022-10-05T05:37:21.523Z,13.97
2022-10-05T05:40:03.145Z,14.04
2022-10-05T05:42:43.674Z,14.04
2022-10-05T05:45:18.730Z,14.04
2022-10-05T05:47:53.799Z,14.15
2022-10-05T05:50:40.330Z,14.22
2022-10-05T05:53:17.022Z,14.32
2022-10-05T05:55:49.509Z,14.32
2022-10-05T05:58:24.871Z,14.29
2022-10-05T06:00:59.145Z,14.51
2022-10-05T06:03:35.579Z,14.39
2022-10-05T06:06:07.324Z,14.50
2022-10-05T06:08:40.822Z,14.45
2022-10-05T06:11:28.986Z,14.51
2022-10-05T06:14:02.701Z,14.51
2022-10-05T06:16:38.390Z,14.43
2022-10-05T06:19:11.942Z,14.50
2022-10-05T06:21:45.592Z,14.49
2022-10-05T06:24:18.779Z,14.56
2022-10-05T06:27:13.189Z,14.59
2022-10-05T06:29:58.157Z,14.71
2022-10-05T06:32:30.655Z,14.72
2022-10-05T06:35:07.912Z,14.82
2022-10-05T06:37:56.704Z,14.74
2022-10-05T06:40:36.935Z,14.79
2022-10-05T06:43:26.919Z,14.94
2022-10-05T06:46:22.881Z,14.96
2022-10-05T06:49:21.105Z,14.99
2022-10-05T06:52:15.380Z,14.91
2022-10-05T06:54:56.700Z,14.89
2022-10-05T06:57:45.458Z,15.00
2022-10-05T07:00:20.205Z,14.76
2022-10-05T07:02:58.632Z,14.88
2022-10-05T07:05:42.945Z,15.09
2022-10-05T07:08:14.597Z,14.89
2022-10-05T07:10:53.565Z,15.09
2022-10-05T07:13:47.511Z,14.98
2022-10-05T07:16:25.601Z,14.98
2022-10-05T07:19:10.259Z,14.97
2022-10-05T07:21:46.856Z,15.21
2022-10-05T07:24:29.260Z,15.40
2022-10-05T07:27:09.212Z,15.32
2022-10-05T07:29:49.037Z,15.39
2022-10-05T07:32:28.817Z,15.46
2022-10-05T07:35:09.157Z,15.50
2022-10-05T07:37:57.825Z,15.37
2022-10-05T07:40:37.815Z,15.57
2022-10-05T07:43:22.927Z,15.63
2022-10-05T07:45:58.291Z,16.00
2022-10-05T07:48:33.172Z,15.81
2022-10-05T07:51:08.405Z,15.76
2022-10-05T07:53:39.208Z,15.75
2022-10-05T07:56:14.750Z,15.91
2022-10-05T07:58:47.822Z,16.10
2022-10-05T08:01:19.263Z,16.21
2022-10-05T08:03:53.666Z,16.43
2022-10-05T08:06:49.172Z,16.33
2022-10-05T08:09:34.053Z,16.20
2022-10-05T08:12:15.048Z,16.30
2022-10-05T08:14:52.446Z,16.32
2022-10-05T08:17:27.465Z,16.53
2022-10-05T08:20:04.168Z,16.76
2022-10-05T08:22:51.690Z,16.80
2022-10-05T08:25:25.641Z,16.68
2022-10-05T08:28:01.129Z,16.97
2022-10-05T08:30:33.307Z,17.09
2022-10-05T08:33:09.592Z,16.89
2022-10-05T08:35:43.800Z,16.92
2022-10-05T08:38:16.644Z,17.07
2022-10-05T08:41:28.167Z,17.28
2022-10-05T08:44:31.890Z,17.00
2022-10-05T08:47:17.497Z,17.19
2022-10-05T08:50:15.996Z,17.26
2022-10-05T08:53:17.409Z,17.32
2022-10-05T08:56:00.288Z,17.36
2022-10-05T08:58:44.465Z,17.55
2022-10-05T09:01:21.780Z,17.54
2022-10-05T09:04:23.604Z,17.46
2022-10-05T09:07:11.560Z,17.77
2022-10-05T09:10:08.304Z,17.61
2022-10-05T09:13:03.573Z,17.65
2022-10-05T09:15:50.266Z,17.88
2022-10-05T09:18:46.617Z,18.10
2022-10-05T09:21:23.434Z,17.93
2022-10-05T09:24:06.591Z,18.00
2022-10-05T09:26:59.323Z,18.23
2022-10-05T09:30:04.145Z,18.21
2022-10-05T09:32:47.789Z,18.11
2022-10-05T09:35:22.189Z,18.14
2022-10-05T09:38:10.075Z,18.02
2022-10-05T09:41:13.344Z,18.04
2022-10-05T09:44:11.043Z,18.23
2022-10-05T09:47:04.090Z,18.34
2022-10-05T09:49:59.509Z,18.49
2022-10-05T09:52:54.546Z,18.56
2022-10-05T09:55:47.130Z,18.62
2022-10-05T09:58:50.766Z,18.50
2022-10-05T10:01:42.214Z,18.74
2022-10-05T10:04:51.605Z,18.56
2022-10-05T10:07:48.626Z,18.95
2022-10-05T10:10:45.087Z,18.89
2022-10-05T10:13:29.967Z,18.87
2022-10-05T10:16:09.866Z,18.65
2022-10-05T10:19:09.604Z,18.72
2022-10-05T10:22:34.141Z,18.88
2022-10-05T10:25:34.743Z,18.72
2022-10-05T10:28:32.532Z,18.88
2022-10-05T10:31:18.390Z,18.68
2022-10-05T10:34:09.162Z,19.00
2022-10-05T10:36:59.378Z,18.87
2022-10-05T10:39:41.601Z,19.15
2022-10-05T10:42:32.966Z,19.08
2022-10-05T10:45:20.625Z,19.23
2022-10-05T10:47:53.046Z,19.11
2022-10-05T10:51:05.654Z,19.06
2022-10-05T10:53:49.473Z,19.80
2022-10-05T10:57:05.090Z,20.91
2022-10-05T10:59:58.252Z,20.73
2022-10-05T11:02:57.375Z,20.51
2022-10-05T11:05:52.844Z,20.91
2022-10-05T11:08:51.724Z,21.87
2022-10-05T11:12:05.597Z,21.98
2022-10-05T11:15:01.455Z,22.44
2022-10-05T11:17:51.087Z,22.75
2022-10-05T11:20:39.482Z,22.67
2022-10-05T11:23:37.934Z,22.53
2022-10-05T11:26:32.507Z,22.32
2022-10-05T11:29:31.327Z,22.06
2022-10-05T11:32:20.068Z,22.55
2022-10-05T11:35:19.989Z,22.89
2022-10-05T11:38:16.857Z,22.93
2022-10-05T11:41:26.289Z,22.48
2022-10-05T11:44:15.430Z,21.94
2022-10-05T11:46:54.500Z,21.80
2022-10-05T11:49:36.465Z,21.76
2022-10-05T11:52:12.099Z,21.67
2022-10-05T11:55:16.907Z,21.32
2022-10-05T11:57:51.367Z,21.42
2022-10-05T12:00:21.988Z,21.26
2022-10-05T12:03:19.235Z,21.41
2022-10-05T12:06:02.002Z,21.54
2022-10-05T12:08:37.967Z,21.96
2022-10-05T12:11:16.133Z,22.05
2022-10-05T12:13:52.917Z,22.25
2022-10-05T12:16:26.967Z,22.25
2022-10-05T12:19:00.423Z,22.55
2022-10-05T12:21:38.016Z,22.24
2022-10-05T12:24:15.080Z,22.17
2022-10-05T12:26:48.807Z,22.32
2022-10-05T12:29:24.180Z,22.30
2022-10-05T12:31:59.852Z,22.49
2022-10-05T12:34:41.934Z,22.15
2022-10-05T12:37:18.180Z,22.18
2022-10-05T12:39:51.733Z,22.09
2022-10-05T12:42:28.368Z,22.13
2022-10-05T12:45:18.046Z,21.82
2022-10-05T12:48:12.160Z,21.86
2022-10-05T12:50:43.153Z,22.00
2022-10-05T12:53:31.470Z,21.74
2022-10-05T12:56:05.158Z,21.89
2022-10-05T12:58:41.203Z,21.92
2022-10-05T13:01:25.656Z,21.94
2022-10-05T13:04:00.590Z,21.66
2022-10-05T13:06:38.170Z,21.87
2022-10-05T13:09:13.844Z,21.71
2022-10-05T13:11:47.299Z,21.55
2022-10-05T13:14:24.389Z,21.97
2022-10-05T13:16:59.696Z,21.90
2022-10-05T13:19:39.305Z,22.08
2022-10-05T13:22:27.136Z,21.98
2022-10-05T13:25:06.971Z,21.76
2022-10-05T13:27:38.125Z,22.10
2022-10-05T13:30:14.452Z,22.19
2022-10-05T13:32:47.942Z,22.06
2022-10-05T13:35:35.908Z,21.93
2022-10-05T13:38:12.555Z,21.85
2022-10-05T13:40:50.645Z,21.99
2022-10-05T13:43:27.025Z,21.89
2022-10-05T13:45:57.423Z,21.82
2022-10-05T13:48:46.390Z,21.67
2022-10-05T13:51:20.553Z,21.75
2022-10-05T13:53:53.834Z,21.79
2022-10-05T13:56:23.525Z,21.69
2022-10-05T13:58:56.069Z,21.85
2022-10-05T14:01:35.829Z,21.82
2022-10-05T14:04:16.873Z,21.63
2022-10-05T14:06:45.940Z,21.63
2022-10-05T14:09:27.364Z,21.53
2022-10-05T14:12:12.950Z,21.33
2022-10-05T14:14:47.067Z,21.43
2022-10-05T14:17:17.300Z,21.61
2022-10-05T14:19:47.257Z,21.57
2022-10-05T14:22:22.364Z,21.49
2022-10-05T14:24:53.224Z,21.37
2022-10-05T14:27:26.581Z,21.44
2022-10-05T14:29:57.150Z,21.20
2022-10-05T14:32:27.056Z,21.34
2022-10-05T14:35:06.153Z,21.30
2022-10-05T14:37:45.356Z,21.09
2022-10-05T14:40:31.574Z,21.28
2022-10-05T14:43:03.123Z,21.18
2022-10-05T14:45:32.616Z,21.24
2022-10-05T14:48:10.873Z,21.24
2022-10-05T14:50:53.269Z,21.32
2022-10-05T14:53:24.553Z,21.43
2022-10-05T14:56:20.785Z,21.22
2022-10-05T14:59:23.146Z,21.26
2022-10-05T15:01:58.851Z,21.24
2022-10-05T15:04:42.883Z,21.26
2022-10-05T15:07:22.711Z,21.31
2022-10-05T15:10:01.899Z,21.24
2022-10-05T15:12:33.330Z,21.18
2022-10-05T15:15:06.397Z,21.22
2022-10-05T15:17:43.134Z,21.11
2022-10-05T15:20:21.318Z,21.10
2022-10-05T15:22:54.524Z,21.23
2022-10-05T15:25:30.556Z,20.99
2022-10-05T15:28:13.283Z,20.92
2022-10-05T15:30:48.356Z,20.99
2022-10-05T15:33:27.783Z,20.97
2022-10-05T15:36:05.341Z,21.00
2022-10-05T15:38:41.765Z,20.92
2022-10-05T15:41:15.954Z,21.01
2022-10-05T15:44:06.125Z,20.96
2022-10-05T15:46:40.401Z,20.87
2022-10-05T15:49:25.372Z,21.10
2022-10-05T15:52:03.446Z,21.01
2022-10-05T15:55:06.447Z,20.97
2022-10-05T15:57:42.308Z,20.90
2022-10-05T16:00:13.522Z,20.80
2022-10-05T16:02:51.347Z,20.81
2022-10-05T16:05:50.284Z,20.54
2022-10-05T16:08:58.590Z,20.59
2022-10-05T16:11:52.573Z,20.63
2022-10-05T16:14:33.308Z,20.63
2022-10-05T16:17:15.977Z,20.35
2022-10-05T16:19:54.517Z,20.49
2022-10-05T16:22:34.537Z,20.33
2022-10-05T16:25:09.125Z,20.51
2022-10-05T16:27:52.590Z,20.22
2022-10-05T16:30:23.206Z,20.34
2022-10-05T16:32:59.649Z,20.18
2022-10-05T16:35:36.387Z,20.46
2022-10-05T16:38:19.638Z,20.28
2022-10-05T16:41:01.916Z,20.23
2022-10-05T16:43:44.943Z,20.32
2022-10-05T16:46:22.328Z,20.26
2022-10-05T16:48:57.697Z,20.08
2022-10-05T16:51:32.436Z,20.05
2022-10-05T16:54:19.540Z,19.96
2022-10-05T16:56:52.589Z,20.10
2022-10-05T16:59:57.018Z,20.10
2022-10-05T17:02:37.773Z,20.12
2022-10-05T17:05:24.070Z,20.11
2022-10-05T17:08:18.041Z,19.98
2022-10-05T17:10:57.904Z,19.98
2022-10-05T17:13:57.057Z,19.94
2022-10-05T17:16:37.429Z,19.65
2022-10-05T17:19:26.722Z,19.69
2022-10-05T17:22:00.676Z,19.69
2022-10-05T17:24:46.054Z,19.67
2022-10-05T17:27:24.261Z,19.67
2022-10-05T17:29:53.602Z,19.52
2022-10-05T17:32:56.402Z,19.41
2022-10-05T17:35:43.638Z,19.60
2022-10-05T17:38:18.159Z,19.55
2022-10-05T17:41:16.376Z,19.57
2022-10-05T17:44:19.259Z,19.53
2022-10-05T17:46:50.307Z,19.52
2022-10-05T17:50:14.526Z,19.33
2022-10-05T17:53:02.371Z,19.32
2022-10-05T17:55:45.870Z,19.31
2022-10-05T17:59:02.654Z,18.98
2022-10-05T18:01:36.422Z,18.92
2022-10-05T18:04:42.387Z,19.02
2022-10-05T18:07:21.598Z,18.95
2022-10-05T18:09:58.451Z,19.01
2022-10-05T18:12:41.631Z,19.00
2022-10-05T18:15:48.689Z,18.90
2022-10-05T18:18:57.170Z,18.88
2022-10-05T18:21:39.149Z,18.81
2022-10-05T18:24:43.145Z,18.68
2022-10-05T18:27:52.331Z,18.86
2022-10-05T18:30:23.416Z,18.65
2022-10-05T18:33:21.490Z,18.69
2022-10-05T18:35:59.505Z,18.74
2022-10-05T18:38:38.086Z,18.72
2022-10-05T18:41:14.585Z,18.68
2022-10-05T18:43:53.207Z,18.53
2022-10-05T18:46:35.717Z,18.58
2022-10-05T18:49:32.210Z,18.45
2022-10-05T18:52:07.456Z,18.49
2022-10-05T18:54:50.956Z,18.49
2022-10-05T18:57:39.689Z,18.44
2022-10-05T19:00:14.485Z,18.46
2022-10-05T19:02:48.352Z,18.46
2022-10-05T19:05:46.854Z,18.38
2022-10-05T19:08:24.231Z,18.22
2022-10-05T19:10:58.540Z,18.32
2022-10-05T19:13:39.113Z,18.28
2022-10-05T19:16:25.450Z,18.26
2022-10-05T19:19:29.427Z,18.34
2022-10-05T19:22:02.171Z,18.48
2022-10-05T19:24:42.802Z,18.31
2022-10-05T19:27:21.321Z,18.40
2022-10-05T19:30:15.551Z,18.18
2022-10-05T19:33:05.851Z,18.42
2022-10-05T19:35:43.203Z,18.30
2022-10-05T19:38:22.747Z,18.03
2022-10-05T19:40:57.843Z,18.34
2022-10-05T19:43:43.376Z,18.36
2022-10-05T19:46:19.922Z,18.44
2022-10-05T19:48:50.031Z,18.47
2022-10-05T19:51:29.407Z,18.48
2022-10-05T19:54:01.262Z,18.36
2022-10-05T19:56:33.549Z,18.17
2022-10-05T19:59:14.148Z,18.28
2022-10-05T20:01:50.536Z,18.18
2022-10-05T20:04:34.452Z,18.12
2022-10-05T20:07:05.264Z,18.16
2022-10-05T20:09:55.055Z,18.13
2022-10-05T20:12:23.665Z,18.02
2022-10-05T20:15:35.454Z,18.07
2022-10-05T20:18:54.553Z,18.17
2022-10-05T20:21:45.702Z,18.02
2022-10-05T20:24:15.820Z,18.00
2022-10-05T20:27:06.027Z,18.02
2022-10-05T20:29:36.524Z,17.99
2022-10-05T20:32:08.715Z,17.98
2022-10-05T20:34:38.130Z,17.88
2022-10-05T20:37:05.993Z,17.95
2022-10-05T20:39:33.881Z,17.94
2022-10-05T20:42:01.759Z,17.86
2022-10-05T20:44:29.722Z,17.91
2022-10-05T20:46:58.480Z,18.10
2022-10-05T20:49:28.300Z,18.05
2022-10-05T20:51:56.667Z,18.06
2022-10-05T20:54:25.456Z,17.96
2022-10-05T20:56:54.897Z,18.07
2022-10-05T20:59:23.965Z,18.02
2022-10-05T21:01:51.975Z,17.94
2022-10-05T21:04:21.718Z,17.74
2022-10-05T21:06:51.818Z,17.92
2022-10-05T21:09:21.365Z,17.92
2022-10-05T21:11:52.894Z,17.89
2022-10-05T21:14:20.801Z,17.88
2022-10-05T21:16:48.739Z,17.76
2022-10-05T21:19:17.009Z,17.78
2022-10-05T21:21:46.213Z,17.93
2022-10-05T21:24:17.351Z,17.79
2022-10-05T21:26:45.979Z,17.89
2022-10-05T21:29:14.266Z,17.87
2022-10-05T21:31:42.449Z,17.86
2022-10-05T21:34:10.491Z,17.89
2022-10-05T21:36:38.382Z,17.92
2022-10-05T21:39:06.236Z,17.90
2022-10-05T21:41:35.473Z,17.99
2022-10-05T21:44:04.088Z,18.03
2022-10-05T21:46:31.984Z,18.14
2022-10-05T21:48:59.847Z,17.81
2022-10-05T21:51:28.443Z,17.82
2022-10-05T21:53:59.016Z,18.01
2022-10-05T21:56:32.214Z,17.94
2022-10-05T21:59:02.816Z,17.83
2022-10-05T22:01:31.253Z,17.98
2022-10-05T22:03:59.136Z,17.91
2022-10-05T22:06:26.983Z,17.85
2022-10-05T22:08:55.024Z,17.87
2022-10-05T22:11:23.044Z,17.93
2022-10-05T22:13:52.983Z,18.00
2022-10-05T22:16:25.296Z,17.89
2022-10-05T22:18:53.646Z,18.03
2022-10-05T22:21:22.131Z,17.96
2022-10-05T22:23:50.325Z,18.15
2022-10-05T22:26:21.700Z,18.15
2022-10-05T22:28:52.333Z,18.07
2022-10-05T22:31:20.343Z,18.07
2022-10-05T22:33:49.589Z,18.15
2022-10-05T22:36:17.662Z,18.03
2022-10-05T22:38:46.582Z,18.16
2022-10-05T22:41:16.479Z,18.17
2022-10-05T22:43:44.381Z,18.12
2022-10-05T22:46:13.301Z,18.14
2022-10-05T22:48:41.463Z,18.04
2022-10-05T22:51:10.920Z,18.09
2022-10-05T22:53:38.948Z,18.14
2022-10-05T22:56:08.564Z,17.89
2022-10-05T22:58:36.789Z,18.16
2022-10-05T23:01:06.289Z,17.77
2022-10-05T23:03:35.336Z,17.98
2022-10-05T23:06:05.501Z,18.12
2022-10-05T23:08:36.136Z,18.05
2022-10-05T23:11:05.052Z,17.91
2022-10-05T23:13:33.316Z,17.96
2022-10-05T23:16:07.163Z,17.97
2022-10-05T23:18:35.261Z,17.97
2022-10-05T23:21:03.374Z,18.03
2022-10-05T23:23:31.201Z,17.98
2022-10-05T23:26:03.436Z,17.91
2022-10-05T23:28:31.850Z,18.07
2022-10-05T23:31:00.882Z,17.95
2022-10-05T23:33:28.793Z,18.04
2022-10-05T23:36:00.530Z,18.03
2022-10-05T23:38:29.563Z,18.03
2022-10-05T23:40:58.565Z,17.95
2022-10-05T23:43:28.207Z,17.95
2022-10-05T23:45:56.759Z,17.91
2022-10-05T23:48:24.935Z,17.84
2022-10-05T23:50:53.801Z,17.91
2022-10-05T23:53:21.752Z,17.97
2022-10-05T23:55:51.648Z,17.90
2022-10-05T23:58:20.111Z,17.90
